Terminal Aerodrome Forecast
Issued by NWS Rapid City, SD

Home | Current Version | Previous Version | Text Only | Print | Product List | Glossary Off
Versions: 1 2 3 4 5 6 7 8 9 10 11 12 13 14

000
FTUS43 KUNR 032322
TAFRAP
TAF
KRAP 032322Z 0400/0424 31008KT P6SM BKN070
     FM040800 VRB05KT P6SM SCT200
     FM041600 16010KT P6SM SCT150=

USA.gov is the U.S. government's official web portal to all federal, state and local government web resources and services.